CBR weather

Canberra International Airport
Canberra, Australian Capital Territory, Australia

Public forecast

Using degrees Celsius for public forecast. Weather courtesy of forecast.io.

METAR (pilot weather report)

Retrieved 2018/09/21 13:00 UTC (19 minutes ago):

YSCB 211300Z AUTO 00000KT 9999 // NCD 06/03 Q1027

TAF (pilot weather forecast)

Retrieved 2018/09/21 12:00 UTC (1 hour ago):

TAF YSCB 211145Z 2112/2212 VRB03KT CAVOK FM220000 30013KT CAVOK FM221100 VRB03KT 9999 SCT025 PROB30 2117/2121 0500 FG SCT001 PROB30 2121/2122 2000 BR FEW003